createdAt,value
2018-03-22T00:00:16.584Z,101100.41
2018-03-22T00:02:43.994Z,101089.61
2018-03-22T00:05:11.481Z,101084.94
2018-03-22T00:07:38.892Z,101082.50
2018-03-22T00:10:06.276Z,101086.47
2018-03-22T00:12:33.664Z,101077.08
2018-03-22T00:15:01.059Z,101078.70
2018-03-22T00:17:28.480Z,101072.53
2018-03-22T00:19:55.935Z,101075.53
2018-03-22T00:22:35.056Z,101074.22
2018-03-22T00:25:02.486Z,101067.45
2018-03-22T00:27:29.878Z,101060.27
2018-03-22T00:29:57.300Z,101065.27
2018-03-22T00:32:24.685Z,101060.91
2018-03-22T00:34:52.933Z,101064.05
2018-03-22T00:37:20.493Z,101058.07
2018-03-22T00:39:47.869Z,101057.63
2018-03-22T00:42:15.314Z,101053.41
2018-03-22T00:44:42.732Z,101050.42
2018-03-22T00:47:13.754Z,101051.10
2018-03-22T00:49:41.138Z,101045.84
2018-03-22T00:52:08.521Z,101052.01
2018-03-22T00:54:37.257Z,101049.46
2018-03-22T00:57:04.769Z,101045.70
2018-03-22T00:59:32.162Z,101041.47
2018-03-22T01:01:59.556Z,101030.86
2018-03-22T01:04:47.303Z,101028.02
2018-03-22T01:07:14.708Z,101024.43
2018-03-22T01:09:42.192Z,101024.11
2018-03-22T01:12:09.896Z,101024.23
2018-03-22T01:14:37.293Z,101020.63
2018-03-22T01:17:05.245Z,101020.03
2018-03-22T01:19:32.638Z,101020.63
2018-03-22T01:22:00.203Z,101014.93
2018-03-22T01:24:27.661Z,101015.17
2018-03-22T01:26:55.072Z,101022.11
2018-03-22T01:42:14.601Z,100997.51
2018-03-22T01:44:42.357Z,100994.20
2018-03-22T01:47:09.727Z,101005.39
2018-03-22T01:49:37.115Z,100997.38
2018-03-22T01:52:04.688Z,100999.43
2018-03-22T01:54:32.071Z,100996.13
2018-03-22T01:56:59.436Z,100996.93
2018-03-22T01:59:26.821Z,100992.21
2018-03-22T02:01:54.194Z,100986.70
2018-03-22T02:04:21.584Z,100986.78
2018-03-22T02:06:49.734Z,100977.67
2018-03-22T02:09:17.122Z,100978.02
2018-03-22T02:11:44.488Z,100969.72
2018-03-22T02:14:11.901Z,100962.03
2018-03-22T02:16:39.289Z,100953.02
2018-03-22T02:19:06.757Z,100951.38
2018-03-22T02:21:34.150Z,100946.98
2018-03-22T02:24:01.557Z,100944.83
2018-03-22T02:26:28.954Z,100949.84
2018-03-22T02:28:56.337Z,100945.39
2018-03-22T02:31:23.718Z,100948.84
2018-03-22T02:33:51.101Z,100948.97
2018-03-22T02:36:18.489Z,100943.14
2018-03-22T02:38:45.863Z,100933.86
2018-03-22T02:41:13.250Z,100927.61
2018-03-22T02:43:41.680Z,100921.83
2018-03-22T02:46:09.316Z,100924.47
2018-03-22T02:48:36.717Z,100917.55
2018-03-22T02:51:04.092Z,100922.55
2018-03-22T02:53:31.562Z,100916.88
2018-03-22T02:55:58.937Z,100909.83
2018-03-22T02:58:26.529Z,100910.63
2018-03-22T03:00:53.934Z,100914.94
2018-03-22T03:03:21.466Z,100909.26
2018-03-22T03:05:49.856Z,100905.64
2018-03-22T03:08:17.266Z,100904.98
2018-03-22T03:10:44.654Z,100909.28
2018-03-22T03:13:12.030Z,100904.50
2018-03-22T03:15:39.496Z,100905.72
2018-03-22T03:18:07.089Z,100899.81
2018-03-22T03:20:34.481Z,100901.23
2018-03-22T03:23:01.881Z,100891.54
2018-03-22T03:25:29.260Z,100886.30
2018-03-22T03:27:56.656Z,100888.67
2018-03-22T03:30:24.123Z,100875.33
2018-03-22T03:32:51.574Z,100874.66
2018-03-22T03:35:18.996Z,100871.00
2018-03-22T03:37:46.440Z,100865.13
2018-03-22T03:40:13.821Z,100864.09
2018-03-22T03:42:41.216Z,100867.51
2018-03-22T03:45:08.597Z,100866.19
2018-03-22T03:47:36.235Z,100860.63
2018-03-22T03:50:03.645Z,100856.70
2018-03-22T03:52:31.326Z,100848.69
2018-03-22T03:54:58.717Z,100851.66
2018-03-22T03:57:26.120Z,100842.88
2018-03-22T03:59:53.510Z,100847.51
2018-03-22T04:02:21.383Z,100848.02
2018-03-22T04:04:48.756Z,100837.36
2018-03-22T04:07:16.153Z,100837.59
2018-03-22T04:09:43.546Z,100840.38
2018-03-22T04:12:10.955Z,100832.19
2018-03-22T04:14:38.337Z,100823.78
2018-03-22T04:17:05.715Z,100815.81
2018-03-22T04:19:33.084Z,100812.14
2018-03-22T04:22:00.464Z,100818.75
2018-03-22T04:24:27.844Z,100803.12
2018-03-22T04:26:55.215Z,100801.45
2018-03-22T04:29:22.874Z,100796.09
2018-03-22T04:31:50.257Z,100794.62
2018-03-22T04:34:17.673Z,100794.54
2018-03-22T04:36:45.040Z,100778.84
2018-03-22T04:39:12.427Z,100777.36
2018-03-22T04:41:39.801Z,100773.20
2018-03-22T04:44:07.199Z,100777.62
2018-03-22T04:46:34.568Z,100771.08
2018-03-22T04:49:01.970Z,100768.87
2018-03-22T04:51:29.364Z,100767.29
2018-03-22T04:53:56.739Z,100766.64
2018-03-22T04:56:24.119Z,100756.06
2018-03-22T04:58:51.776Z,100759.88
2018-03-22T05:01:19.266Z,100752.50
2018-03-22T05:03:46.650Z,100746.38
2018-03-22T05:06:14.267Z,100746.10
2018-03-22T05:08:41.633Z,100733.55
2018-03-22T05:11:09.050Z,100727.50
2018-03-22T05:13:36.460Z,100724.78
2018-03-22T05:16:03.861Z,100718.88
2018-03-22T05:18:31.252Z,100718.80
2018-03-22T05:20:58.646Z,100718.31
2018-03-22T05:23:26.018Z,100704.38
2018-03-22T05:25:53.651Z,100698.88
2018-03-22T05:28:21.028Z,100701.88
2018-03-22T05:30:48.461Z,100697.46
2018-03-22T05:33:15.847Z,100692.75
2018-03-22T05:35:43.273Z,100700.62
2018-03-22T05:38:11.430Z,100694.37
2018-03-22T05:40:38.835Z,100699.67
2018-03-22T05:43:06.244Z,100691.44
2018-03-22T05:45:33.614Z,100688.91
2018-03-22T05:48:01.000Z,100681.55
2018-03-22T05:50:28.372Z,100690.08
2018-03-22T05:52:55.767Z,100687.20
2018-03-22T05:55:23.137Z,100694.82
2018-03-22T05:57:50.857Z,100687.97
2018-03-22T06:00:18.305Z,100697.35
2018-03-22T06:02:45.694Z,100703.16
2018-03-22T06:05:13.096Z,100709.84
2018-03-22T06:07:40.473Z,100711.03
2018-03-22T06:10:07.859Z,100704.42
2018-03-22T06:12:35.246Z,100691.17
2018-03-22T06:15:02.645Z,100698.75
2018-03-22T06:17:30.265Z,100704.19
2018-03-22T06:19:57.608Z,100702.03
2018-03-22T06:22:24.998Z,100687.33
2018-03-22T06:24:52.406Z,100696.98
2018-03-22T06:27:19.782Z,100682.88
2018-03-22T06:29:47.173Z,100688.54
2018-03-22T06:32:14.564Z,100683.23
2018-03-22T06:34:41.956Z,100678.20
2018-03-22T06:37:09.346Z,100687.02
2018-03-22T06:39:36.837Z,100676.14
2018-03-22T06:42:04.234Z,100670.83
2018-03-22T06:44:31.621Z,100670.45
2018-03-22T06:46:59.026Z,100661.84
2018-03-22T06:49:26.397Z,100668.06
2018-03-22T06:51:53.796Z,100672.59
2018-03-22T06:54:21.193Z,100650.91
2018-03-22T06:56:48.582Z,100662.16
2018-03-22T06:59:16.391Z,100650.06
2018-03-22T07:01:43.774Z,100641.50
2018-03-22T07:04:11.165Z,100640.52
2018-03-22T07:06:38.573Z,100615.44
2018-03-22T07:09:05.978Z,100611.45
2018-03-22T07:11:33.390Z,100606.55
2018-03-22T07:14:00.760Z,100608.28
2018-03-22T07:16:28.147Z,100612.84
2018-03-22T07:18:55.556Z,100606.42
2018-03-22T07:21:22.933Z,100603.94
2018-03-22T07:23:51.195Z,100592.25
2018-03-22T07:26:18.662Z,100588.56
2018-03-22T07:28:46.264Z,100596.52
2018-03-22T07:31:13.909Z,100597.50
2018-03-22T07:33:41.320Z,100597.55
2018-03-22T07:36:08.748Z,100601.19
2018-03-22T07:38:36.138Z,100596.50
2018-03-22T07:41:03.529Z,100579.79
2018-03-22T07:43:36.542Z,100573.80
2018-03-22T07:46:03.929Z,100579.37
2018-03-22T07:48:31.394Z,100572.42
2018-03-22T07:50:58.816Z,100577.69
2018-03-22T07:53:26.229Z,100584.25
2018-03-22T07:55:53.617Z,100587.77
2018-03-22T07:58:21.613Z,100587.26
2018-03-22T08:00:49.121Z,100578.05
2018-03-22T08:03:18.998Z,100585.30
2018-03-22T08:05:46.408Z,100581.06
2018-03-22T08:08:13.801Z,100581.12
2018-03-22T08:10:41.431Z,100571.84
2018-03-22T08:13:08.825Z,100574.22
2018-03-22T08:15:36.217Z,100572.66
2018-03-22T08:18:03.627Z,100570.22
2018-03-22T08:20:31.343Z,100546.28
2018-03-22T08:22:58.886Z,100546.17
2018-03-22T08:25:26.276Z,100531.26
2018-03-22T08:27:53.696Z,100537.39
2018-03-22T08:30:21.789Z,100537.23
2018-03-22T08:32:49.267Z,100563.98
2018-03-22T08:35:16.713Z,100550.83
2018-03-22T08:37:44.276Z,100551.21
2018-03-22T08:40:11.685Z,100546.84
2018-03-22T08:42:39.124Z,100540.92
2018-03-22T08:45:06.616Z,100534.63
2018-03-22T08:47:34.378Z,100540.59
2018-03-22T08:50:01.771Z,100537.70
2018-03-22T08:52:29.185Z,100537.66
2018-03-22T08:54:56.564Z,100541.22
2018-03-22T08:57:24.253Z,100544.25
2018-03-22T08:59:52.099Z,100552.73
2018-03-22T09:02:19.512Z,100543.95
2018-03-22T09:04:48.166Z,100541.05
2018-03-22T09:07:15.500Z,100551.67
2018-03-22T09:09:42.951Z,100559.05
2018-03-22T09:12:10.320Z,100579.02
2018-03-22T09:14:37.701Z,100555.73
2018-03-22T09:17:05.104Z,100567.98
2018-03-22T09:19:32.498Z,100555.66
2018-03-22T09:21:59.905Z,100563.55
2018-03-22T09:24:27.288Z,100548.38
2018-03-22T09:27:00.322Z,100546.03
2018-03-22T09:29:27.709Z,100544.75
2018-03-22T09:31:55.121Z,100537.10
2018-03-22T09:34:22.498Z,100540.16
2018-03-22T09:36:50.047Z,100529.17
2018-03-22T09:39:17.460Z,100527.08
2018-03-22T09:41:44.892Z,100526.09
2018-03-22T09:44:12.279Z,100516.84
2018-03-22T09:46:39.668Z,100512.78
2018-03-22T09:49:07.285Z,100516.71
2018-03-22T09:51:34.689Z,100511.44
2018-03-22T09:54:02.091Z,100507.53
2018-03-22T09:56:29.476Z,100499.98
2018-03-22T09:58:56.882Z,100500.80
2018-03-22T10:01:24.310Z,100487.73
2018-03-22T10:03:51.711Z,100486.86
2018-03-22T10:06:19.097Z,100492.25
2018-03-22T10:08:46.514Z,100477.16
2018-03-22T10:11:13.892Z,100464.69
2018-03-22T10:13:41.352Z,100462.66
2018-03-22T10:16:08.730Z,100449.27
2018-03-22T10:18:36.137Z,100440.02
2018-03-22T10:21:03.651Z,100440.20
2018-03-22T10:23:31.150Z,100437.69
2018-03-22T10:25:58.545Z,100443.63
2018-03-22T10:28:25.944Z,100430.22
2018-03-22T10:30:53.342Z,100433.37
2018-03-22T10:33:20.786Z,100433.30
2018-03-22T10:35:48.228Z,100417.78
2018-03-22T10:38:15.611Z,100412.89
2018-03-22T10:40:43.363Z,100405.59
2018-03-22T10:43:10.748Z,100402.81
2018-03-22T10:45:38.145Z,100405.59
2018-03-22T10:48:05.585Z,100404.64
2018-03-22T10:50:33.033Z,100389.90
2018-03-22T10:53:00.416Z,100398.34
2018-03-22T10:55:27.822Z,100397.22
2018-03-22T10:57:55.206Z,100392.93
2018-03-22T11:00:28.167Z,100402.73
2018-03-22T11:02:56.471Z,100392.63
2018-03-22T11:05:23.873Z,100380.09
2018-03-22T11:07:51.274Z,100380.87
2018-03-22T11:10:18.668Z,100369.44
2018-03-22T11:12:46.082Z,100383.33
2018-03-22T11:15:13.519Z,100390.02
2018-03-22T11:17:40.919Z,100363.38
2018-03-22T11:20:08.310Z,100351.23
2018-03-22T11:22:35.708Z,100367.04
2018-03-22T11:25:03.263Z,100348.87
2018-03-22T11:27:30.672Z,100334.36
2018-03-22T11:29:58.025Z,100348.03
2018-03-22T11:32:25.618Z,100333.22
2018-03-22T11:34:53.338Z,100327.72
2018-03-22T11:37:20.743Z,100328.89
2018-03-22T11:39:48.132Z,100320.44
2018-03-22T11:42:15.789Z,100320.95
2018-03-22T11:44:43.948Z,100318.61
2018-03-22T11:47:11.368Z,100356.50
2018-03-22T11:49:38.762Z,100320.08
2018-03-22T11:52:07.113Z,100332.22
2018-03-22T11:54:34.510Z,100315.64
2018-03-22T11:57:01.944Z,100313.66
2018-03-22T11:59:29.329Z,100304.70
2018-03-22T12:01:56.742Z,100308.36
2018-03-22T12:04:24.128Z,100318.23
2018-03-22T12:06:52.379Z,100307.24
2018-03-22T12:09:19.780Z,100306.53
2018-03-22T12:11:47.177Z,100285.63
2018-03-22T12:14:19.340Z,100299.08
2018-03-22T12:16:46.741Z,100285.34
2018-03-22T12:19:14.144Z,100270.73
2018-03-22T12:21:41.551Z,100297.27
2018-03-22T12:24:09.294Z,100272.69
2018-03-22T12:26:36.703Z,100269.47
2018-03-22T12:29:04.103Z,100263.36
2018-03-22T12:31:31.485Z,100249.36
2018-03-22T12:33:58.980Z,100249.25
2018-03-22T12:36:26.449Z,100242.53
2018-03-22T12:38:53.988Z,100245.50
2018-03-22T12:41:21.425Z,100236.05
2018-03-22T12:43:48.912Z,100236.25
2018-03-22T12:46:16.493Z,100247.13
2018-03-22T12:48:43.890Z,100229.17
2018-03-22T12:51:11.362Z,100230.09
2018-03-22T12:53:38.752Z,100226.06
2018-03-22T12:56:06.146Z,100221.44
2018-03-22T12:58:33.661Z,100211.51
2018-03-22T13:01:01.141Z,100204.36
2018-03-22T13:03:28.561Z,100202.67
2018-03-22T13:05:56.349Z,100208.72
2018-03-22T13:08:23.837Z,100191.77
2018-03-22T13:10:52.258Z,100197.42
2018-03-22T13:13:19.709Z,100197.55
2018-03-22T13:15:47.198Z,100184.45
2018-03-22T13:18:14.569Z,100189.16
2018-03-22T13:20:41.978Z,100195.03
2018-03-22T13:23:09.357Z,100197.86
2018-03-22T13:25:36.752Z,100181.13
2018-03-22T13:28:04.186Z,100186.11
2018-03-22T13:30:31.564Z,100181.66
2018-03-22T13:32:58.969Z,100186.58
2018-03-22T13:35:26.360Z,100209.98
2018-03-22T13:37:53.774Z,100187.44
2018-03-22T13:40:21.201Z,100171.43
2018-03-22T13:42:48.621Z,100169.12
2018-03-22T13:45:16.010Z,100183.83
2018-03-22T13:47:43.406Z,100170.30
2018-03-22T13:50:10.799Z,100159.33
2018-03-22T13:52:38.222Z,100171.67
2018-03-22T13:55:05.638Z,100159.97
2018-03-22T13:57:33.083Z,100158.53
2018-03-22T14:00:00.695Z,100159.00
2018-03-22T14:02:28.131Z,100159.70
2018-03-22T14:04:55.534Z,100152.58
2018-03-22T14:07:23.402Z,100145.06
2018-03-22T14:09:50.793Z,100136.92
2018-03-22T14:12:18.185Z,100146.34
2018-03-22T14:14:45.618Z,100129.94
2018-03-22T14:17:13.021Z,100137.72
2018-03-22T14:19:40.465Z,100144.68
2018-03-22T14:22:07.844Z,100140.31
2018-03-22T14:24:35.275Z,100130.69
2018-03-22T14:27:02.744Z,100143.70
2018-03-22T14:29:30.174Z,100143.42
2018-03-22T14:31:57.565Z,100125.53
2018-03-22T14:34:25.105Z,100131.87
2018-03-22T14:36:53.521Z,100122.46
2018-03-22T14:39:20.985Z,100121.96
2018-03-22T14:41:48.464Z,100115.02
2018-03-22T14:44:16.399Z,100107.95
2018-03-22T14:46:43.956Z,100114.63
2018-03-22T14:49:11.367Z,100105.04
2018-03-22T14:51:38.795Z,100107.44
2018-03-22T14:54:06.269Z,100111.31
2018-03-22T14:56:36.612Z,100090.38
2018-03-22T14:59:04.001Z,100089.34
2018-03-22T15:01:31.524Z,100090.52
2018-03-22T15:03:58.894Z,100086.76
2018-03-22T15:06:26.409Z,100091.67
2018-03-22T15:08:53.856Z,100087.52
2018-03-22T15:11:21.369Z,100094.41
2018-03-22T15:13:48.730Z,100096.81
2018-03-22T15:16:16.230Z,100087.67
2018-03-22T15:18:43.717Z,100091.94
2018-03-22T15:21:11.146Z,100085.31
2018-03-22T15:23:38.943Z,100095.76
2018-03-22T15:26:06.373Z,100089.43
2018-03-22T15:28:33.891Z,100089.03
2018-03-22T15:31:01.285Z,100091.08
2018-03-22T15:33:28.678Z,100089.17
2018-03-22T15:35:56.056Z,100083.95
2018-03-22T15:38:23.862Z,100091.63
2018-03-22T15:40:51.261Z,100094.40
2018-03-22T15:43:18.845Z,100089.26
2018-03-22T15:45:46.251Z,100085.55
2018-03-22T15:48:13.675Z,100087.87
2018-03-22T15:50:41.172Z,100083.89
2018-03-22T15:53:08.613Z,100086.74
2018-03-22T15:55:36.046Z,100096.78
2018-03-22T15:58:03.449Z,100095.40
2018-03-22T16:00:30.840Z,100083.95
2018-03-22T16:02:58.310Z,100087.00
2018-03-22T16:05:25.740Z,100093.58
2018-03-22T16:07:54.053Z,100091.67
2018-03-22T16:10:21.544Z,100082.80
2018-03-22T16:12:49.001Z,100084.00
2018-03-22T16:15:16.433Z,100092.05
2018-03-22T16:17:43.937Z,100089.62
2018-03-22T16:20:11.346Z,100085.88
2018-03-22T16:22:38.953Z,100092.11
2018-03-22T16:25:06.556Z,100084.50
2018-03-22T16:27:33.937Z,100082.66
2018-03-22T16:30:01.552Z,100086.78
2018-03-22T16:32:29.628Z,100082.73
2018-03-22T16:34:57.042Z,100086.39
2018-03-22T16:37:24.434Z,100090.30
2018-03-22T16:39:51.829Z,100091.31
2018-03-22T16:42:19.307Z,100077.07
2018-03-22T16:44:51.714Z,100081.55
2018-03-22T16:47:25.331Z,100081.95
2018-03-22T16:49:52.956Z,100081.84
2018-03-22T16:52:20.459Z,100084.59
2018-03-22T16:54:49.816Z,100078.65
2018-03-22T16:57:17.210Z,100074.61
2018-03-22T16:59:44.774Z,100079.95
2018-03-22T17:02:12.342Z,100073.11
2018-03-22T17:04:39.777Z,100073.13
2018-03-22T17:07:08.381Z,100073.49
2018-03-22T17:09:35.917Z,100073.03
2018-03-22T17:12:03.357Z,100069.95
2018-03-22T17:14:31.459Z,100063.95
2018-03-22T17:16:58.889Z,100066.62
2018-03-22T17:19:26.356Z,100061.83
2018-03-22T17:21:54.364Z,100061.42
2018-03-22T17:24:21.765Z,100055.62
2018-03-22T17:26:49.173Z,100062.17
2018-03-22T17:29:17.008Z,100054.81
2018-03-22T17:31:46.033Z,100053.68
2018-03-22T17:34:13.411Z,100063.23
2018-03-22T17:36:40.841Z,100058.58
2018-03-22T17:39:08.625Z,100061.42
2018-03-22T17:41:36.441Z,100065.78
2018-03-22T17:44:03.885Z,100058.80
2018-03-22T17:46:31.305Z,100054.25
2018-03-22T17:48:58.944Z,100051.70
2018-03-22T17:51:26.393Z,100055.59
2018-03-22T17:53:54.741Z,100046.01
2018-03-22T17:56:22.133Z,100048.56
2018-03-22T17:58:49.834Z,100048.05
2018-03-22T18:01:17.243Z,100043.27
2018-03-22T18:03:44.672Z,100049.22
2018-03-22T18:06:12.308Z,100056.29
2018-03-22T18:08:39.724Z,100047.44
2018-03-22T18:11:09.113Z,100052.19
2018-03-22T18:13:36.515Z,100052.77
2018-03-22T18:16:03.939Z,100057.11
2018-03-22T18:18:31.301Z,100054.47
2018-03-22T18:20:59.140Z,100061.98
2018-03-22T18:23:26.544Z,100060.72
2018-03-22T18:25:54.654Z,100058.91
2018-03-22T18:28:22.055Z,100075.14
2018-03-22T18:30:49.444Z,100076.66
2018-03-22T18:33:16.841Z,100061.60
2018-03-22T18:35:44.256Z,100061.61
2018-03-22T18:38:11.949Z,100055.58
2018-03-22T18:40:39.382Z,100054.69
2018-03-22T18:43:09.821Z,100062.04
2018-03-22T18:45:44.519Z,100057.05
2018-03-22T18:48:12.034Z,100053.87
2018-03-22T18:50:39.482Z,100046.87
2018-03-22T18:53:06.889Z,100044.66
2018-03-22T18:55:34.365Z,100046.80
2018-03-22T18:58:01.736Z,100046.11
2018-03-22T19:00:29.152Z,100045.89
2018-03-22T19:02:56.544Z,100051.81
2018-03-22T19:05:25.609Z,100041.56
2018-03-22T19:07:53.000Z,100044.80
2018-03-22T19:10:20.409Z,100042.75
2018-03-22T19:12:47.801Z,100046.03
2018-03-22T19:15:15.292Z,100040.05
2018-03-22T19:17:42.688Z,100049.40
2018-03-22T19:20:10.088Z,100044.86
2018-03-22T19:22:37.503Z,100039.88
2018-03-22T19:25:04.902Z,100046.92
2018-03-22T19:27:32.290Z,100044.17
2018-03-22T19:29:59.745Z,100053.75
2018-03-22T19:32:27.214Z,100037.10
2018-03-22T19:34:55.088Z,100047.59
2018-03-22T19:37:22.509Z,100037.69
2018-03-22T19:39:49.889Z,100038.41
2018-03-22T19:42:17.383Z,100037.95
2018-03-22T19:44:44.772Z,100050.31
2018-03-22T19:47:12.406Z,100029.11
2018-03-22T19:49:39.834Z,100033.69
2018-03-22T19:52:07.218Z,100028.21
2018-03-22T19:54:34.690Z,100039.59
2018-03-22T19:57:02.112Z,100028.66
2018-03-22T19:59:29.514Z,100039.55
2018-03-22T20:01:57.158Z,100031.81
2018-03-22T20:04:24.572Z,100028.54
2018-03-22T20:06:51.954Z,100033.95
2018-03-22T20:09:19.353Z,100049.00
2018-03-22T20:11:46.748Z,100038.45
2018-03-22T20:14:14.211Z,100038.05
2018-03-22T20:16:41.640Z,100039.41
2018-03-22T20:19:09.045Z,100025.92
2018-03-22T20:21:36.431Z,100031.36
2018-03-22T20:24:04.074Z,100018.91
2018-03-22T20:26:31.580Z,100013.81
2018-03-22T20:28:59.023Z,100007.92
2018-03-22T20:31:26.653Z,100015.59
2018-03-22T20:33:54.140Z,100016.03
2018-03-22T20:36:21.525Z,100011.44
2018-03-22T20:38:49.001Z,100020.00
2018-03-22T20:41:16.489Z,100018.42
2018-03-22T20:43:45.946Z,100023.69
2018-03-22T20:46:13.522Z,100022.55
2018-03-22T20:48:40.921Z,100020.85
2018-03-22T20:51:08.624Z,100022.20
2018-03-22T20:53:35.997Z,100024.17
2018-03-22T20:56:03.399Z,100019.50
2018-03-22T20:58:30.811Z,100022.80
2018-03-22T21:00:58.210Z,100022.49
2018-03-22T21:03:25.699Z,100017.20
2018-03-22T21:05:53.112Z,100012.53
2018-03-22T21:08:20.538Z,100016.23
2018-03-22T21:10:47.980Z,100018.67
2018-03-22T21:13:15.479Z,100015.67
2018-03-22T21:15:42.866Z,100017.77
2018-03-22T21:18:10.332Z,100017.73
2018-03-22T21:20:37.762Z,100022.23
2018-03-22T21:23:05.204Z,100022.09
2018-03-22T21:25:32.629Z,100006.36
2018-03-22T21:28:00.044Z,99999.63
2018-03-22T21:30:27.442Z,100002.45
2018-03-22T21:32:55.941Z,100002.08
2018-03-22T21:35:23.331Z,100004.34
2018-03-22T21:37:50.750Z,99989.91
2018-03-22T21:40:18.142Z,100003.37
2018-03-22T21:42:45.545Z,99996.21
2018-03-22T21:45:12.951Z,99986.84
2018-03-22T21:47:40.373Z,99993.11
2018-03-22T21:50:07.787Z,99994.16
2018-03-22T21:52:46.766Z,99995.34
2018-03-22T21:55:14.159Z,99997.22
2018-03-22T21:57:41.566Z,99986.17
2018-03-22T22:00:09.649Z,99981.58
2018-03-22T22:02:38.132Z,99978.63
2018-03-22T22:05:05.532Z,99970.27
2018-03-22T22:07:32.964Z,99972.80
2018-03-22T22:10:00.350Z,99968.18
2018-03-22T22:12:27.742Z,99966.34
2018-03-22T22:14:55.947Z,99953.02
2018-03-22T22:17:23.370Z,99969.30
2018-03-22T22:19:50.857Z,99951.00
2018-03-22T22:22:18.242Z,99953.55
2018-03-22T22:24:45.656Z,99955.18
2018-03-22T22:27:13.040Z,99966.70
2018-03-22T22:29:40.453Z,99956.41
2018-03-22T22:32:07.849Z,99960.11
2018-03-22T22:34:35.248Z,99945.23
2018-03-22T22:37:02.628Z,99953.13
2018-03-22T22:39:30.036Z,99947.47
2018-03-22T22:41:57.417Z,99949.47
2018-03-22T22:44:28.957Z,99943.61
2018-03-22T22:49:36.273Z,99953.33
2018-03-22T22:52:03.660Z,99939.23
2018-03-22T22:54:31.043Z,99943.08
2018-03-22T22:56:58.433Z,99944.15
2018-03-22T22:59:26.004Z,99936.67
2018-03-22T23:01:53.409Z,99935.47
2018-03-22T23:04:20.821Z,99931.06
2018-03-22T23:06:48.229Z,99921.44
2018-03-22T23:09:15.612Z,99926.64
2018-03-22T23:11:43.016Z,99924.45
2018-03-22T23:14:10.443Z,99923.94
2018-03-22T23:16:37.901Z,99916.05
2018-03-22T23:19:05.275Z,99923.38
2018-03-22T23:21:32.713Z,99914.36
2018-03-22T23:24:00.098Z,99911.35
2018-03-22T23:26:27.550Z,99915.50
2018-03-22T23:28:54.971Z,99904.76
2018-03-22T23:34:13.181Z,99903.19
2018-03-22T23:36:40.644Z,99906.16
2018-03-22T23:39:08.057Z,99904.19
2018-03-22T23:41:35.438Z,99896.91
2018-03-22T23:44:02.852Z,99909.80
2018-03-22T23:46:30.272Z,99911.46
2018-03-22T23:48:57.665Z,99909.19
2018-03-22T23:51:25.049Z,99898.56
2018-03-22T23:53:52.432Z,99897.14
2018-03-22T23:56:19.905Z,99891.11
2018-03-22T23:58:47.261Z,99889.61
